Startpagina
METAR-TAF:

METAR-TAF

Vliegvelden :

Vliegbasis Gilze-Rijen

Gilze-Rijen, Nederland

breedte: 51-34N, lengte: 004-56E, hoogte: 15 m

Actueel weer

Dit bericht is 22 minuten geleden gemaakt, om 21:55 UTC
Wind 5 kt uit het noordnoordwesten, variërend tussen het noordwesten en het noordoosten
Temperatuur 15°C
Vochtigheid 82%
Druk 1024 hPa
Zicht 10 km of meer
Geheel bewolkt op 2800 ft

METAR: EHGR 242155Z AUTO 34005KT 310V050 9999 OVC028 15/12 Q1024 BLU

Tijdstip: 00:17 (22:17 UTC)


TAF: ontbreekt

Waarnemingen en weersverwachtingen van meer dan 4000 vliegvelden (METAR en TAF).

De beschikbare stations zijn de gele en rode punten op de kaart.

Ga met uw muis naar het station om de naam te zien.

Klik dan om waarnemingen en weersverwachtingen te zien.

kaart wijzigen: klik op de groene knoppen met een zwart kruis om in te zoomen, op de groene knop met een streepje om uit te zoomen of op de groene pijlen voor aangrenzende kaarten.


METAR-TAF: